sensor_id;sensor_type;location;lat;lon;timestamp;pressure;altitude;pressure_sealevel;temperature;humidity
11017;BME280;54687;50.800;6.772;2022-12-07T00:01:51;61214.50;;;-144.06;65.94
11017;BME280;54687;50.800;6.772;2022-12-07T00:04:18;61201.91;;;-144.06;66.08
11017;BME280;54687;50.800;6.772;2022-12-07T00:06:50;61227.06;;;-144.06;66.03
11017;BME280;54687;50.800;6.772;2022-12-07T00:09:18;61210.31;;;-144.06;65.74
11017;BME280;54687;50.800;6.772;2022-12-07T00:11:48;61206.09;;;-144.06;65.88
11017;BME280;54687;50.800;6.772;2022-12-07T00:14:18;61222.88;;;-144.06;65.49
11017;BME280;54687;50.800;6.772;2022-12-07T00:16:45;61227.06;;;-144.06;65.68
11017;BME280;54687;50.800;6.772;2022-12-07T00:19:16;61233.38;;;-144.06;65.70
11017;BME280;54687;50.800;6.772;2022-12-07T00:21:43;61180.97;;;-144.06;65.88
11017;BME280;54687;50.800;6.772;2022-12-07T00:24:11;61214.50;;;-144.06;65.82
11017;BME280;54687;50.800;6.772;2022-12-07T00:26:40;61176.75;;;-144.06;66.02
11017;BME280;54687;50.800;6.772;2022-12-07T00:29:10;61271.09;;;-144.06;65.99
11017;BME280;54687;50.800;6.772;2022-12-07T00:31:38;61235.47;;;-144.06;66.00
11017;BME280;54687;50.800;6.772;2022-12-07T00:34:05;61204.00;;;-144.06;66.26
11017;BME280;54687;50.800;6.772;2022-12-07T00:36:34;61231.25;;;-144.06;66.47
11017;BME280;54687;50.800;6.772;2022-12-07T00:39:01;61206.09;;;-144.06;66.73
11017;BME280;54687;50.800;6.772;2022-12-07T00:41:29;61252.22;;;-144.06;66.86
11017;BME280;54687;50.800;6.772;2022-12-07T00:43:56;61231.25;;;-144.06;67.03
11017;BME280;54687;50.800;6.772;2022-12-07T00:46:23;61199.81;;;-144.06;67.13
11017;BME280;54687;50.800;6.772;2022-12-07T00:48:51;61191.44;;;-144.06;67.07
11017;BME280;54687;50.800;6.772;2022-12-07T00:51:21;61206.09;;;-144.06;67.42
11017;BME280;54687;50.800;6.772;2022-12-07T00:53:48;61224.97;;;-144.06;67.16
11017;BME280;54687;50.800;6.772;2022-12-07T00:56:16;61195.63;;;-144.06;66.97
11017;BME280;54687;50.800;6.772;2022-12-07T00:58:49;61222.88;;;-144.06;66.98
11017;BME280;54687;50.800;6.772;2022-12-07T01:01:16;61227.06;;;-144.06;67.15
11017;BME280;54687;50.800;6.772;2022-12-07T01:03:42;61201.91;;;-144.06;67.31
11017;BME280;54687;50.800;6.772;2022-12-07T01:06:09;61218.69;;;-144.06;67.53
11017;BME280;54687;50.800;6.772;2022-12-07T01:08:35;61220.78;;;-144.06;67.57
11017;BME280;54687;50.800;6.772;2022-12-07T01:11:04;61218.69;;;-144.06;67.55
11017;BME280;54687;50.800;6.772;2022-12-07T01:13:31;61231.25;;;-144.06;67.66
11017;BME280;54687;50.800;6.772;2022-12-07T01:16:02;61235.47;;;-144.06;67.69
11017;BME280;54687;50.800;6.772;2022-12-07T01:18:31;61176.75;;;-144.06;67.82
11017;BME280;54687;50.800;6.772;2022-12-07T01:21:00;61229.16;;;-144.06;67.59
11017;BME280;54687;50.800;6.772;2022-12-07T01:23:27;61256.41;;;-144.06;67.48
11017;BME280;54687;50.800;6.772;2022-12-07T01:25:55;61210.31;;;-144.06;67.49
11017;BME280;54687;50.800;6.772;2022-12-07T01:28:22;61235.47;;;-144.06;67.36
11017;BME280;54687;50.800;6.772;2022-12-07T01:30:55;61222.88;;;-144.06;67.10
11017;BME280;54687;50.800;6.772;2022-12-07T01:33:23;61199.81;;;-144.06;67.07
11017;BME280;54687;50.800;6.772;2022-12-07T01:35:50;61235.47;;;-144.06;67.06
11017;BME280;54687;50.800;6.772;2022-12-07T01:38:17;61185.16;;;-144.06;67.34
11017;BME280;54687;50.800;6.772;2022-12-07T01:40:44;61231.25;;;-144.06;67.08
11017;BME280;54687;50.800;6.772;2022-12-07T01:43:15;61197.72;;;-144.06;66.97
11017;BME280;54687;50.800;6.772;2022-12-07T01:45:43;61250.13;;;-144.06;66.88
11017;BME280;54687;50.800;6.772;2022-12-07T01:48:11;61185.16;;;-144.06;67.21
11017;BME280;54687;50.800;6.772;2022-12-07T01:50:42;61210.31;;;-144.06;66.95
11017;BME280;54687;50.800;6.772;2022-12-07T01:53:10;61199.81;;;-144.06;66.94
11017;BME280;54687;50.800;6.772;2022-12-07T01:55:40;61172.56;;;-144.06;66.91
11017;BME280;54687;50.800;6.772;2022-12-07T01:58:07;61222.88;;;-144.06;67.05
11017;BME280;54687;50.800;6.772;2022-12-07T02:00:34;61199.81;;;-144.06;66.90
11017;BME280;54687;50.800;6.772;2022-12-07T02:03:04;61231.25;;;-144.06;66.90
11017;BME280;54687;50.800;6.772;2022-12-07T02:05:34;61237.56;;;-144.06;66.77
11017;BME280;54687;50.800;6.772;2022-12-07T02:08:04;61193.53;;;-144.06;66.99
11017;BME280;54687;50.800;6.772;2022-12-07T02:10:31;61195.63;;;-144.06;66.73
11017;BME280;54687;50.800;6.772;2022-12-07T02:13:03;61197.72;;;-144.06;66.84
11017;BME280;54687;50.800;6.772;2022-12-07T02:15:38;61212.41;;;-144.06;67.17
11017;BME280;54687;50.800;6.772;2022-12-07T02:18:10;61231.25;;;-144.06;67.30
11017;BME280;54687;50.800;6.772;2022-12-07T02:20:42;61220.78;;;-144.06;66.95
11017;BME280;54687;50.800;6.772;2022-12-07T02:23:39;61206.09;;;-144.06;66.72
11017;BME280;54687;50.800;6.772;2022-12-07T02:26:29;61170.47;;;-144.06;66.83
11017;BME280;54687;50.800;6.772;2022-12-07T02:29:14;61260.63;;;-144.06;66.42
11017;BME280;54687;50.800;6.772;2022-12-07T02:31:46;61206.09;;;-144.06;66.73
11017;BME280;54687;50.800;6.772;2022-12-07T02:34:24;61250.13;;;-144.06;66.73
11017;BME280;54687;50.800;6.772;2022-12-07T02:36:55;61185.16;;;-144.06;66.78
11017;BME280;54687;50.800;6.772;2022-12-07T02:39:30;61210.31;;;-144.06;66.67
11017;BME280;54687;50.800;6.772;2022-12-07T02:42:03;61214.50;;;-144.06;66.47
11017;BME280;54687;50.800;6.772;2022-12-07T02:44:36;61218.69;;;-144.06;66.46
11017;BME280;54687;50.800;6.772;2022-12-07T02:47:05;61210.31;;;-144.06;66.34
11017;BME280;54687;50.800;6.772;2022-12-07T02:49:33;61231.25;;;-144.06;66.48
11017;BME280;54687;50.800;6.772;2022-12-07T02:52:01;61231.25;;;-144.06;66.41
11017;BME280;54687;50.800;6.772;2022-12-07T02:54:28;61201.91;;;-144.06;66.75
11017;BME280;54687;50.800;6.772;2022-12-07T02:57:01;61218.69;;;-144.06;66.49
11017;BME280;54687;50.800;6.772;2022-12-07T02:59:43;61180.97;;;-144.06;66.56
11017;BME280;54687;50.800;6.772;2022-12-07T03:02:20;61206.09;;;-144.06;66.75
11017;BME280;54687;50.800;6.772;2022-12-07T03:05:01;61189.34;;;-144.06;66.61
11017;BME280;54687;50.800;6.772;2022-12-07T03:07:41;61218.69;;;-144.06;66.74
11017;BME280;54687;50.800;6.772;2022-12-07T03:10:14;61243.84;;;-144.06;66.56
11017;BME280;54687;50.800;6.772;2022-12-07T03:12:51;61195.63;;;-144.06;66.41
11017;BME280;54687;50.800;6.772;2022-12-07T03:15:27;61216.59;;;-144.06;66.74
11017;BME280;54687;50.800;6.772;2022-12-07T03:17:57;61231.25;;;-144.06;66.59
11017;BME280;54687;50.800;6.772;2022-12-07T03:20:27;61193.53;;;-144.06;66.64
11017;BME280;54687;50.800;6.772;2022-12-07T03:22:56;61204.00;;;-144.06;66.67
11017;BME280;54687;50.800;6.772;2022-12-07T03:25:24;61185.16;;;-144.06;66.56
11017;BME280;54687;50.800;6.772;2022-12-07T03:27:54;61269.00;;;-144.06;66.70
11017;BME280;54687;50.800;6.772;2022-12-07T03:30:27;61210.31;;;-144.06;66.85
11017;BME280;54687;50.800;6.772;2022-12-07T03:32:59;61208.22;;;-144.06;66.76
11017;BME280;54687;50.800;6.772;2022-12-07T03:35:29;61199.81;;;-144.06;66.55
11017;BME280;54687;50.800;6.772;2022-12-07T03:38:00;61227.06;;;-144.06;66.65
11017;BME280;54687;50.800;6.772;2022-12-07T03:40:33;61180.97;;;-144.06;66.68
11017;BME280;54687;50.800;6.772;2022-12-07T03:43:02;61227.06;;;-144.06;66.41
11017;BME280;54687;50.800;6.772;2022-12-07T03:45:37;61214.50;;;-144.06;66.49
11017;BME280;54687;50.800;6.772;2022-12-07T03:48:07;61218.69;;;-144.06;66.84
11017;BME280;54687;50.800;6.772;2022-12-07T03:50:41;61229.16;;;-144.06;66.85
11017;BME280;54687;50.800;6.772;2022-12-07T03:53:13;61250.13;;;-144.06;66.83
11017;BME280;54687;50.800;6.772;2022-12-07T03:55:42;61222.88;;;-144.06;66.73
11017;BME280;54687;50.800;6.772;2022-12-07T03:58:12;61210.31;;;-144.06;66.70
11017;BME280;54687;50.800;6.772;2022-12-07T04:00:42;61256.41;;;-144.06;66.73
11017;BME280;54687;50.800;6.772;2022-12-07T04:03:09;61189.34;;;-144.06;66.78
11017;BME280;54687;50.800;6.772;2022-12-07T04:05:36;61256.41;;;-144.06;66.73
11017;BME280;54687;50.800;6.772;2022-12-07T04:08:04;61206.09;;;-144.06;66.79
11017;BME280;54687;50.800;6.772;2022-12-07T04:10:31;61233.38;;;-144.06;67.00
11017;BME280;54687;50.800;6.772;2022-12-07T04:12:57;61206.09;;;-144.06;66.88
11017;BME280;54687;50.800;6.772;2022-12-07T04:15:24;61174.66;;;-144.06;66.86
11017;BME280;54687;50.800;6.772;2022-12-07T04:17:53;61212.41;;;-144.06;67.16
11017;BME280;54687;50.800;6.772;2022-12-07T04:20:20;61231.25;;;-144.06;67.15
11017;BME280;54687;50.800;6.772;2022-12-07T04:22:47;61250.13;;;-144.06;66.79
11017;BME280;54687;50.800;6.772;2022-12-07T04:25:13;61206.09;;;-144.06;67.06
11017;BME280;54687;50.800;6.772;2022-12-07T04:27:40;61185.16;;;-144.06;66.87
11017;BME280;54687;50.800;6.772;2022-12-07T04:30:08;61193.53;;;-144.06;66.98
11017;BME280;54687;50.800;6.772;2022-12-07T04:32:34;61218.69;;;-144.06;66.83
11017;BME280;54687;50.800;6.772;2022-12-07T04:35:03;61222.88;;;-144.06;66.93
11017;BME280;54687;50.800;6.772;2022-12-07T04:37:30;61160.00;;;-144.06;66.98
11017;BME280;54687;50.800;6.772;2022-12-07T04:39:57;61229.16;;;-144.06;66.95
11017;BME280;54687;50.800;6.772;2022-12-07T04:42:24;61193.53;;;-144.06;67.11
11017;BME280;54687;50.800;6.772;2022-12-07T04:44:50;61204.00;;;-144.06;66.95
11017;BME280;54687;50.800;6.772;2022-12-07T04:47:17;61218.69;;;-144.06;67.26
11017;BME280;54687;50.800;6.772;2022-12-07T04:49:43;61220.78;;;-144.06;66.85
11017;BME280;54687;50.800;6.772;2022-12-07T04:52:11;61273.19;;;-144.06;67.01
11017;BME280;54687;50.800;6.772;2022-12-07T04:54:38;61189.34;;;-144.06;67.21
11017;BME280;54687;50.800;6.772;2022-12-07T04:57:04;61222.88;;;-144.06;67.29
11017;BME280;54687;50.800;6.772;2022-12-07T04:59:31;61204.00;;;-144.06;67.71
11017;BME280;54687;50.800;6.772;2022-12-07T05:01:57;61178.84;;;-144.06;67.98
11017;BME280;54687;50.800;6.772;2022-12-07T05:04:24;61239.66;;;-144.06;67.82
11017;BME280;54687;50.800;6.772;2022-12-07T05:06:50;61210.31;;;-144.06;68.15
11017;BME280;54687;50.800;6.772;2022-12-07T05:09:18;61252.22;;;-144.06;67.84
11017;BME280;54687;50.800;6.772;2022-12-07T05:11:45;61206.09;;;-144.06;68.40
11017;BME280;54687;50.800;6.772;2022-12-07T05:14:14;61231.25;;;-144.06;68.33
11017;BME280;54687;50.800;6.772;2022-12-07T05:16:42;61285.78;;;-144.06;68.40
11017;BME280;54687;50.800;6.772;2022-12-07T05:19:09;61271.09;;;-144.06;68.84
11017;BME280;54687;50.800;6.772;2022-12-07T05:21:36;61227.06;;;-144.06;69.42
11017;BME280;54687;50.800;6.772;2022-12-07T05:24:04;61256.41;;;-144.06;68.96
11017;BME280;54687;50.800;6.772;2022-12-07T05:26:32;61216.59;;;-144.06;69.56
11017;BME280;54687;50.800;6.772;2022-12-07T05:28:59;61214.50;;;-144.06;69.26
11017;BME280;54687;50.800;6.772;2022-12-07T05:31:27;61210.31;;;-144.06;69.32
11017;BME280;54687;50.800;6.772;2022-12-07T05:33:54;61222.88;;;-144.06;69.59
11017;BME280;54687;50.800;6.772;2022-12-07T05:36:20;61245.94;;;-144.06;69.90
11017;BME280;54687;50.800;6.772;2022-12-07T05:38:47;61231.25;;;-144.06;69.85
11017;BME280;54687;50.800;6.772;2022-12-07T05:41:17;61218.69;;;-144.06;69.55
11017;BME280;54687;50.800;6.772;2022-12-07T05:44:03;61260.63;;;-144.06;69.73
11017;BME280;54687;50.800;6.772;2022-12-07T05:46:30;61287.88;;;-144.06;69.69
11017;BME280;54687;50.800;6.772;2022-12-07T05:48:57;61254.31;;;-144.06;69.40
11017;BME280;54687;50.800;6.772;2022-12-07T05:51:23;61250.13;;;-144.06;69.18
11017;BME280;54687;50.800;6.772;2022-12-07T05:53:50;61252.22;;;-144.06;69.38
11017;BME280;54687;50.800;6.772;2022-12-07T05:56:17;61231.25;;;-144.06;69.48
11017;BME280;54687;50.800;6.772;2022-12-07T05:58:43;61216.59;;;-144.06;69.59
11017;BME280;54687;50.800;6.772;2022-12-07T06:01:29;61204.00;;;-144.06;69.94
11017;BME280;54687;50.800;6.772;2022-12-07T06:03:56;61197.72;;;-144.06;69.64
11017;BME280;54687;50.800;6.772;2022-12-07T06:06:22;61218.69;;;-144.06;69.82
11017;BME280;54687;50.800;6.772;2022-12-07T06:08:49;61250.13;;;-144.06;70.04
11017;BME280;54687;50.800;6.772;2022-12-07T06:11:15;61243.84;;;-144.06;70.03
11017;BME280;54687;50.800;6.772;2022-12-07T06:13:59;61208.22;;;-144.06;69.64
11017;BME280;54687;50.800;6.772;2022-12-07T06:16:26;61222.88;;;-144.06;69.24
11017;BME280;54687;50.800;6.772;2022-12-07T06:18:54;61256.41;;;-144.06;69.58
11017;BME280;54687;50.800;6.772;2022-12-07T06:21:21;61201.91;;;-144.06;68.99
11017;BME280;54687;50.800;6.772;2022-12-07T06:23:47;61174.66;;;-144.06;69.23
11017;BME280;54687;50.800;6.772;2022-12-07T06:26:14;61218.69;;;-144.06;68.91
11017;BME280;54687;50.800;6.772;2022-12-07T06:28:41;61248.03;;;-144.06;68.97
11017;BME280;54687;50.800;6.772;2022-12-07T06:31:08;61227.06;;;-144.06;69.33
11017;BME280;54687;50.800;6.772;2022-12-07T06:33:35;61201.91;;;-144.06;69.18
11017;BME280;54687;50.800;6.772;2022-12-07T06:36:03;61206.09;;;-144.06;68.86
11017;BME280;54687;50.800;6.772;2022-12-07T06:38:30;61227.06;;;-144.06;68.70
11017;BME280;54687;50.800;6.772;2022-12-07T06:40:57;61235.47;;;-144.06;68.99
11017;BME280;54687;50.800;6.772;2022-12-07T06:43:23;61252.22;;;-144.06;69.23
11017;BME280;54687;50.800;6.772;2022-12-07T06:45:50;61248.03;;;-144.06;69.21
11017;BME280;54687;50.800;6.772;2022-12-07T06:48:17;61220.78;;;-144.06;68.85
11017;BME280;54687;50.800;6.772;2022-12-07T06:50:44;61218.69;;;-144.06;69.16
11017;BME280;54687;50.800;6.772;2022-12-07T06:53:12;61250.13;;;-144.06;69.18
11017;BME280;54687;50.800;6.772;2022-12-07T06:55:39;61197.72;;;-144.06;69.16
11017;BME280;54687;50.800;6.772;2022-12-07T06:58:05;61193.53;;;-144.06;68.86
11017;BME280;54687;50.800;6.772;2022-12-07T07:00:32;61227.06;;;-144.06;69.15
11017;BME280;54687;50.800;6.772;2022-12-07T07:03:00;61220.78;;;-144.06;68.66
11017;BME280;54687;50.800;6.772;2022-12-07T07:05:27;61201.91;;;-144.06;68.77
11017;BME280;54687;50.800;6.772;2022-12-07T07:07:54;61216.59;;;-144.06;68.81
11017;BME280;54687;50.800;6.772;2022-12-07T07:10:22;61210.31;;;-144.06;68.65
11017;BME280;54687;50.800;6.772;2022-12-07T07:12:48;61264.81;;;-144.06;68.52
11017;BME280;54687;50.800;6.772;2022-12-07T07:15:15;61252.22;;;-144.06;68.71
11017;BME280;54687;50.800;6.772;2022-12-07T07:17:42;61214.50;;;-144.06;68.72
11017;BME280;54687;50.800;6.772;2022-12-07T07:20:10;61218.69;;;-144.06;68.61
11017;BME280;54687;50.800;6.772;2022-12-07T07:22:36;61252.22;;;-144.06;68.69
11017;BME280;54687;50.800;6.772;2022-12-07T07:25:03;61250.13;;;-144.06;69.04
11017;BME280;54687;50.800;6.772;2022-12-07T07:27:32;61195.63;;;-144.06;69.05
11017;BME280;54687;50.800;6.772;2022-12-07T07:29:58;61210.31;;;-144.06;68.87
11017;BME280;54687;50.800;6.772;2022-12-07T07:32:25;61214.50;;;-144.06;68.24
11017;BME280;54687;50.800;6.772;2022-12-07T07:34:53;61248.03;;;-144.06;68.54
11017;BME280;54687;50.800;6.772;2022-12-07T07:37:20;61243.84;;;-144.06;68.58
11017;BME280;54687;50.800;6.772;2022-12-07T07:39:46;61201.91;;;-144.06;68.28
11017;BME280;54687;50.800;6.772;2022-12-07T07:42:13;61210.31;;;-144.06;67.96
11017;BME280;54687;50.800;6.772;2022-12-07T07:44:41;61248.03;;;-144.06;67.89
11017;BME280;54687;50.800;6.772;2022-12-07T07:47:07;61254.31;;;-144.06;68.03
11017;BME280;54687;50.800;6.772;2022-12-07T07:49:34;61222.88;;;-144.06;67.96
11017;BME280;54687;50.800;6.772;2022-12-07T07:52:01;61214.50;;;-144.06;67.77
11017;BME280;54687;50.800;6.772;2022-12-07T07:54:27;61245.94;;;-144.06;67.71
11017;BME280;54687;50.800;6.772;2022-12-07T07:56:54;61233.38;;;-144.06;67.47
11017;BME280;54687;50.800;6.772;2022-12-07T07:59:20;61212.41;;;-144.06;67.60
11017;BME280;54687;50.800;6.772;2022-12-07T08:01:48;61252.22;;;-144.06;67.37
11017;BME280;54687;50.800;6.772;2022-12-07T08:04:15;61197.72;;;-144.06;67.02
11017;BME280;54687;50.800;6.772;2022-12-07T08:06:42;61187.25;;;-144.06;67.03
11017;BME280;54687;50.800;6.772;2022-12-07T08:09:08;61227.06;;;-144.06;66.96
11017;BME280;54687;50.800;6.772;2022-12-07T08:11:36;61235.47;;;-144.06;67.29
11017;BME280;54687;50.800;6.772;2022-12-07T08:14:02;61222.88;;;-144.06;67.54
11017;BME280;54687;50.800;6.772;2022-12-07T08:16:29;61222.88;;;-144.06;67.56
11017;BME280;54687;50.800;6.772;2022-12-07T08:18:57;61214.50;;;-144.06;67.49
11017;BME280;54687;50.800;6.772;2022-12-07T08:21:23;61227.06;;;-144.06;67.48
11017;BME280;54687;50.800;6.772;2022-12-07T08:23:50;61212.41;;;-144.06;67.46
11017;BME280;54687;50.800;6.772;2022-12-07T08:26:16;61260.63;;;-144.06;67.69
11017;BME280;54687;50.800;6.772;2022-12-07T08:28:43;61243.84;;;-144.06;67.46
11017;BME280;54687;50.800;6.772;2022-12-07T08:31:13;61243.84;;;-144.06;67.51
11017;BME280;54687;50.800;6.772;2022-12-07T08:33:40;61237.56;;;-144.06;67.81
11017;BME280;54687;50.800;6.772;2022-12-07T08:36:11;61189.34;;;-144.06;67.69
11017;BME280;54687;50.800;6.772;2022-12-07T08:38:39;61237.56;;;-144.06;67.78
11017;BME280;54687;50.800;6.772;2022-12-07T08:41:06;61212.41;;;-144.06;67.21
11017;BME280;54687;50.800;6.772;2022-12-07T08:43:34;61189.34;;;-144.06;66.76
11017;BME280;54687;50.800;6.772;2022-12-07T08:46:06;61227.06;;;-144.06;66.71
11017;BME280;54687;50.800;6.772;2022-12-07T08:48:37;61243.84;;;-144.06;66.70
11017;BME280;54687;50.800;6.772;2022-12-07T08:51:04;61183.06;;;-144.06;66.09
11017;BME280;54687;50.800;6.772;2022-12-07T08:53:33;61208.22;;;-144.06;66.00
11017;BME280;54687;50.800;6.772;2022-12-07T08:56:01;61210.31;;;-144.06;65.55
11017;BME280;54687;50.800;6.772;2022-12-07T08:58:28;61231.25;;;-144.06;65.55
11017;BME280;54687;50.800;6.772;2022-12-07T09:00:55;61229.16;;;-144.06;65.98
11017;BME280;54687;50.800;6.772;2022-12-07T09:03:21;61212.41;;;-144.06;66.17
11017;BME280;54687;50.800;6.772;2022-12-07T09:05:48;61256.41;;;-144.06;66.45
11017;BME280;54687;50.800;6.772;2022-12-07T09:08:15;61245.94;;;-144.06;66.47
11017;BME280;54687;50.800;6.772;2022-12-07T09:10:43;61201.91;;;-144.06;66.83
11017;BME280;54687;50.800;6.772;2022-12-07T09:13:10;61208.22;;;-144.06;66.71
11017;BME280;54687;50.800;6.772;2022-12-07T09:15:37;61227.06;;;-144.06;66.73
11017;BME280;54687;50.800;6.772;2022-12-07T09:18:04;61227.06;;;-144.06;66.81
11017;BME280;54687;50.800;6.772;2022-12-07T09:20:30;61224.97;;;-144.06;66.72
11017;BME280;54687;50.800;6.772;2022-12-07T09:22:57;61210.31;;;-144.06;66.63
11017;BME280;54687;50.800;6.772;2022-12-07T09:25:24;61216.59;;;-144.06;65.65
11017;BME280;54687;50.800;6.772;2022-12-07T09:27:56;61214.50;;;-144.06;64.92
11017;BME280;54687;50.800;6.772;2022-12-07T09:30:23;61193.53;;;-144.06;64.06
11017;BME280;54687;50.800;6.772;2022-12-07T09:32:49;61206.09;;;-144.06;63.74
11017;BME280;54687;50.800;6.772;2022-12-07T09:35:16;61216.59;;;-144.06;63.15
11017;BME280;54687;50.800;6.772;2022-12-07T09:37:43;61218.69;;;-144.06;63.05
11017;BME280;54687;50.800;6.772;2022-12-07T09:40:10;61206.09;;;-144.06;62.84
11017;BME280;54687;50.800;6.772;2022-12-07T09:42:38;61220.78;;;-144.06;62.84
11017;BME280;54687;50.800;6.772;2022-12-07T09:45:12;61229.16;;;-144.06;62.77
11017;BME280;54687;50.800;6.772;2022-12-07T09:47:40;61197.72;;;-144.06;62.51
11017;BME280;54687;50.800;6.772;2022-12-07T09:50:13;61201.91;;;-144.06;61.81
11017;BME280;54687;50.800;6.772;2022-12-07T09:52:41;61252.22;;;-144.06;61.41
11017;BME280;54687;50.800;6.772;2022-12-07T09:55:11;61201.91;;;-144.06;61.13
11017;BME280;54687;50.800;6.772;2022-12-07T09:57:38;61214.50;;;-144.06;60.69
11017;BME280;54687;50.800;6.772;2022-12-07T10:00:13;61191.44;;;-144.06;60.44
11017;BME280;54687;50.800;6.772;2022-12-07T10:02:41;61222.88;;;-144.06;60.55
11017;BME280;54687;50.800;6.772;2022-12-07T10:05:13;61218.69;;;-144.06;59.96
11017;BME280;54687;50.800;6.772;2022-12-07T10:07:40;61180.97;;;-144.06;59.40
11017;BME280;54687;50.800;6.772;2022-12-07T10:10:15;61189.34;;;-144.06;59.96
11017;BME280;54687;50.800;6.772;2022-12-07T10:12:55;61176.75;;;-144.06;59.52
11017;BME280;54687;50.800;6.772;2022-12-07T10:15:41;61214.50;;;-144.06;58.91
11017;BME280;54687;50.800;6.772;2022-12-07T10:18:17;61193.53;;;-144.06;58.25
11017;BME280;54687;50.800;6.772;2022-12-07T10:20:44;61222.88;;;-144.06;58.43
11017;BME280;54687;50.800;6.772;2022-12-07T10:23:14;61197.72;;;-144.06;58.31
11017;BME280;54687;50.800;6.772;2022-12-07T10:25:41;61212.41;;;-144.06;58.55
11017;BME280;54687;50.800;6.772;2022-12-07T10:28:14;61195.63;;;-144.06;58.72
11017;BME280;54687;50.800;6.772;2022-12-07T10:30:58;61201.91;;;-144.06;59.40
11017;BME280;54687;50.800;6.772;2022-12-07T10:33:32;61189.34;;;-144.06;59.21
11017;BME280;54687;50.800;6.772;2022-12-07T10:36:01;61193.53;;;-144.06;58.79
11017;BME280;54687;50.800;6.772;2022-12-07T10:38:45;61206.09;;;-144.06;58.54
11017;BME280;54687;50.800;6.772;2022-12-07T10:41:12;61168.38;;;-144.06;57.67
11017;BME280;54687;50.800;6.772;2022-12-07T10:43:46;61195.63;;;-144.06;58.25
11017;BME280;54687;50.800;6.772;2022-12-07T10:49:22;61201.91;;;-144.06;57.75
11017;BME280;54687;50.800;6.772;2022-12-07T10:52:00;61193.53;;;-144.06;57.85
11017;BME280;54687;50.800;6.772;2022-12-07T10:54:40;61185.16;;;-144.06;58.44
11017;BME280;54687;50.800;6.772;2022-12-07T10:57:30;61206.09;;;-144.06;58.80
11017;BME280;54687;50.800;6.772;2022-12-07T11:00:08;61193.53;;;-144.06;59.40
11017;BME280;54687;50.800;6.772;2022-12-07T11:05:39;61197.72;;;-144.06;59.28
11017;BME280;54687;50.800;6.772;2022-12-07T11:08:14;61195.63;;;-144.06;58.53
11017;BME280;54687;50.800;6.772;2022-12-07T11:10:47;61248.03;;;-144.06;58.71
11017;BME280;54687;50.800;6.772;2022-12-07T11:13:26;61204.00;;;-144.06;58.82
11017;BME280;54687;50.800;6.772;2022-12-07T11:16:23;61160.00;;;-144.06;59.00
11017;BME280;54687;50.800;6.772;2022-12-07T11:19:02;61195.63;;;-144.06;58.79
11017;BME280;54687;50.800;6.772;2022-12-07T11:21:36;61180.97;;;-144.06;58.74
11017;BME280;54687;50.800;6.772;2022-12-07T11:24:10;61168.38;;;-144.06;58.59
11017;BME280;54687;50.800;6.772;2022-12-07T11:26:52;61176.75;;;-144.06;57.81
11017;BME280;54687;50.800;6.772;2022-12-07T11:29:38;61185.16;;;-144.06;57.41
11017;BME280;54687;50.800;6.772;2022-12-07T11:32:15;61193.53;;;-144.06;57.71
11017;BME280;54687;50.800;6.772;2022-12-07T11:34:52;61174.66;;;-144.06;57.41
11017;BME280;54687;50.800;6.772;2022-12-07T11:37:28;61130.66;;;-144.06;56.87
11017;BME280;54687;50.800;6.772;2022-12-07T11:40:01;61185.16;;;-144.06;56.47
11017;BME280;54687;50.800;6.772;2022-12-07T11:42:31;61168.38;;;-144.06;56.02
11017;BME280;54687;50.800;6.772;2022-12-07T11:45:02;61160.00;;;-144.06;55.78
11017;BME280;54687;50.800;6.772;2022-12-07T11:47:41;61176.75;;;-144.06;55.95
11017;BME280;54687;50.800;6.772;2022-12-07T11:50:23;61174.66;;;-144.06;55.27
11017;BME280;54687;50.800;6.772;2022-12-07T11:52:55;61170.47;;;-144.06;55.68
11017;BME280;54687;50.800;6.772;2022-12-07T11:55:28;61195.63;;;-144.06;55.55
11017;BME280;54687;50.800;6.772;2022-12-07T11:58:03;61176.75;;;-144.06;55.03
11017;BME280;54687;50.800;6.772;2022-12-07T12:00:30;61162.09;;;-144.06;54.50
11017;BME280;54687;50.800;6.772;2022-12-07T12:03:02;61185.16;;;-144.06;54.20
11017;BME280;54687;50.800;6.772;2022-12-07T12:05:32;61166.28;;;-144.06;54.25
11017;BME280;54687;50.800;6.772;2022-12-07T12:08:05;61170.47;;;-144.06;54.73
11017;BME280;54687;50.800;6.772;2022-12-07T12:10:48;61153.69;;;-144.06;54.59
11017;BME280;54687;50.800;6.772;2022-12-07T12:16:23;61141.13;;;-144.06;55.21
11017;BME280;54687;50.800;6.772;2022-12-07T12:19:07;61147.41;;;-144.06;55.08
11017;BME280;54687;50.800;6.772;2022-12-07T12:21:44;61199.81;;;-144.06;55.49
11017;BME280;54687;50.800;6.772;2022-12-07T12:24:16;61143.22;;;-144.06;55.55
11017;BME280;54687;50.800;6.772;2022-12-07T12:26:50;61210.31;;;-144.06;55.45
11017;BME280;54687;50.800;6.772;2022-12-07T12:29:23;61151.59;;;-144.06;55.87
11017;BME280;54687;50.800;6.772;2022-12-07T12:32:15;61160.00;;;-144.06;55.72
11017;BME280;54687;50.800;6.772;2022-12-07T12:35:00;61160.00;;;-144.06;55.92
11017;BME280;54687;50.800;6.772;2022-12-07T12:37:41;61197.72;;;-144.06;56.30
11017;BME280;54687;50.800;6.772;2022-12-07T12:43:42;61160.00;;;-144.06;56.95
11017;BME280;54687;50.800;6.772;2022-12-07T12:46:37;61206.09;;;-144.06;56.50
11017;BME280;54687;50.800;6.772;2022-12-07T12:49:36;61155.81;;;-144.06;56.61
11017;BME280;54687;50.800;6.772;2022-12-07T12:55:19;61183.06;;;-144.06;56.70
11017;BME280;54687;50.800;6.772;2022-12-07T12:57:52;61180.97;;;-144.06;56.32
11017;BME280;54687;50.800;6.772;2022-12-07T13:00:39;61189.34;;;-144.06;56.49
11017;BME280;54687;50.800;6.772;2022-12-07T13:03:21;61122.25;;;-144.06;54.87
11017;BME280;54687;50.800;6.772;2022-12-07T13:06:18;61185.16;;;-144.06;53.91
11017;BME280;54687;50.800;6.772;2022-12-07T13:08:46;61155.81;;;-144.06;54.23
11017;BME280;54687;50.800;6.772;2022-12-07T13:11:20;61164.19;;;-144.06;54.74
11017;BME280;54687;50.800;6.772;2022-12-07T13:13:51;61189.34;;;-144.06;54.69